CheckWX is a tool to help pilots better visualize weather data.  It is not intended as a substitute for an official pre-flight weather briefing.

23:25:47 UTC

KELK METAR
Elk City Regional Business Airport
Elk City, Oklahoma, USA
Current

31 mins ago

KELK 162255Z AUTO 19015G22KT 10SM CLR 15/00 A2994 RMK AO2 T01500000
Observed
Nov-16 @ 22:55 UTC
Wind
  • 190° at 15 KTS
  • Gusting to 22 KTS
Visibility
10 SM
Flight Rules
VFR
Cloud Levels
  • Clear skies
Temperature
15°C / 59°F
Dewpoint
C / 32°F
Humidity
36%
Altimeter
29.94" Hg
Pressure
1013.92 hPa
Previous

51 mins ago

KELK 162235Z AUTO 18011G19KT 10SM CLR 15/00 A2995 RMK AO2 T01531003
Observed
Nov-16 @ 22:35 UTC
Wind
  • 180° at 11 KTS
  • Gusting to 19 KTS
Visibility
10 SM
Flight Rules
VFR
Cloud Levels
  • Clear skies
Temperature
15°C / 59°F
Dewpoint
-0°C / 32°F
Humidity
36%
Altimeter
29.95" Hg
Pressure
1014.22 hPa
Previous

1 hour ago

KELK 162215Z AUTO 17015G22KT 10SM CLR 16/00 A2994 RMK AO2 T01561005
Observed
Nov-16 @ 22:15 UTC
Wind
  • 170° at 15 KTS
  • Gusting to 22 KTS
Visibility
10 SM
Flight Rules
VFR
Cloud Levels
  • Clear skies
Temperature
16°C / 61°F
Dewpoint
-1°C / 30°F
Humidity
31%
Altimeter
29.94" Hg
Pressure
1013.92 hPa